sensor_id;sensor_type;location;lat;lon;timestamp;P1;durP1;ratioP1;P2;durP2;ratioP2
56824;SDS011;42705;50.326;18.772;2023-11-21T00:02:49;4.70;;;2.40;;
56824;SDS011;42705;50.326;18.772;2023-11-21T00:08:11;5.30;;;3.20;;
56824;SDS011;42705;50.326;18.772;2023-11-21T00:13:33;6.10;;;3.20;;
56824;SDS011;42705;50.326;18.772;2023-11-21T00:18:55;7.20;;;3.80;;
56824;SDS011;42705;50.326;18.772;2023-11-21T00:24:17;8.80;;;4.80;;
56824;SDS011;42705;50.326;18.772;2023-11-21T00:29:40;9.30;;;5.30;;
56824;SDS011;42705;50.326;18.772;2023-11-21T00:35:03;10.10;;;6.10;;
56824;SDS011;42705;50.326;18.772;2023-11-21T00:40:25;13.00;;;7.20;;
56824;SDS011;42705;50.326;18.772;2023-11-21T00:45:47;15.30;;;10.20;;
56824;SDS011;42705;50.326;18.772;2023-11-21T00:51:10;14.50;;;10.00;;
56824;SDS011;42705;50.326;18.772;2023-11-21T00:56:32;15.60;;;11.10;;
56824;SDS011;42705;50.326;18.772;2023-11-21T01:01:57;14.40;;;7.90;;
56824;SDS011;42705;50.326;18.772;2023-11-21T01:07:22;9.80;;;6.50;;
56824;SDS011;42705;50.326;18.772;2023-11-21T01:12:44;9.20;;;6.30;;
56824;SDS011;42705;50.326;18.772;2023-11-21T01:18:06;11.30;;;6.20;;
56824;SDS011;42705;50.326;18.772;2023-11-21T01:23:28;10.70;;;5.60;;
56824;SDS011;42705;50.326;18.772;2023-11-21T01:28:50;9.60;;;4.50;;
56824;SDS011;42705;50.326;18.772;2023-11-21T01:34:12;8.10;;;4.60;;
56824;SDS011;42705;50.326;18.772;2023-11-21T01:39:33;6.00;;;3.50;;
56824;SDS011;42705;50.326;18.772;2023-11-21T01:44:55;5.00;;;3.30;;
56824;SDS011;42705;50.326;18.772;2023-11-21T01:50:17;5.80;;;4.10;;
56824;SDS011;42705;50.326;18.772;2023-11-21T01:55:40;8.20;;;3.40;;
56824;SDS011;42705;50.326;18.772;2023-11-21T02:01:04;4.10;;;2.70;;
56824;SDS011;42705;50.326;18.772;2023-11-21T02:11:53;5.00;;;2.50;;
56824;SDS011;42705;50.326;18.772;2023-11-21T02:17:15;7.20;;;2.60;;
56824;SDS011;42705;50.326;18.772;2023-11-21T02:22:39;5.70;;;2.80;;
56824;SDS011;42705;50.326;18.772;2023-11-21T02:28:03;6.60;;;3.20;;
56824;SDS011;42705;50.326;18.772;2023-11-21T02:33:26;3.90;;;2.50;;
56824;SDS011;42705;50.326;18.772;2023-11-21T02:38:47;5.40;;;3.10;;
56824;SDS011;42705;50.326;18.772;2023-11-21T02:44:09;6.30;;;2.80;;
56824;SDS011;42705;50.326;18.772;2023-11-21T02:49:32;6.20;;;2.80;;
56824;SDS011;42705;50.326;18.772;2023-11-21T02:54:56;4.00;;;2.30;;
56824;SDS011;42705;50.326;18.772;2023-11-21T03:00:17;5.40;;;2.60;;
56824;SDS011;42705;50.326;18.772;2023-11-21T03:05:39;5.00;;;2.40;;
56824;SDS011;42705;50.326;18.772;2023-11-21T03:11:02;4.60;;;2.50;;
56824;SDS011;42705;50.326;18.772;2023-11-21T03:16:24;4.50;;;2.30;;
56824;SDS011;42705;50.326;18.772;2023-11-21T03:21:47;7.20;;;2.90;;
56824;SDS011;42705;50.326;18.772;2023-11-21T03:27:09;6.50;;;2.50;;
56824;SDS011;42705;50.326;18.772;2023-11-21T03:32:31;4.20;;;2.40;;
56824;SDS011;42705;50.326;18.772;2023-11-21T03:37:54;6.30;;;2.80;;
56824;SDS011;42705;50.326;18.772;2023-11-21T03:48:39;7.70;;;3.00;;
56824;SDS011;42705;50.326;18.772;2023-11-21T03:54:01;7.50;;;3.60;;
56824;SDS011;42705;50.326;18.772;2023-11-21T03:59:23;9.20;;;3.60;;
56824;SDS011;42705;50.326;18.772;2023-11-21T04:04:45;7.70;;;4.00;;
56824;SDS011;42705;50.326;18.772;2023-11-21T04:10:08;9.60;;;3.90;;
56824;SDS011;42705;50.326;18.772;2023-11-21T04:15:30;9.70;;;4.90;;
56824;SDS011;42705;50.326;18.772;2023-11-21T04:20:53;10.00;;;4.10;;
56824;SDS011;42705;50.326;18.772;2023-11-21T04:26:14;7.00;;;3.50;;
56824;SDS011;42705;50.326;18.772;2023-11-21T04:31:36;10.80;;;5.30;;
56824;SDS011;42705;50.326;18.772;2023-11-21T04:36:58;10.10;;;5.40;;
56824;SDS011;42705;50.326;18.772;2023-11-21T04:42:20;7.80;;;4.80;;
56824;SDS011;42705;50.326;18.772;2023-11-21T04:47:42;8.50;;;5.10;;
56824;SDS011;42705;50.326;18.772;2023-11-21T04:58:27;8.00;;;5.60;;
56824;SDS011;42705;50.326;18.772;2023-11-21T05:03:49;10.20;;;6.00;;
56824;SDS011;42705;50.326;18.772;2023-11-21T05:09:11;7.50;;;5.80;;
56824;SDS011;42705;50.326;18.772;2023-11-21T05:14:33;7.50;;;4.80;;
56824;SDS011;42705;50.326;18.772;2023-11-21T05:19:55;8.20;;;4.70;;
56824;SDS011;42705;50.326;18.772;2023-11-21T05:25:17;10.30;;;6.20;;
56824;SDS011;42705;50.326;18.772;2023-11-21T05:30:42;10.30;;;6.00;;
56824;SDS011;42705;50.326;18.772;2023-11-21T05:36:04;11.30;;;6.50;;
56824;SDS011;42705;50.326;18.772;2023-11-21T05:41:26;9.90;;;5.60;;
56824;SDS011;42705;50.326;18.772;2023-11-21T05:46:48;9.10;;;5.20;;
56824;SDS011;42705;50.326;18.772;2023-11-21T05:52:09;9.30;;;5.00;;
56824;SDS011;42705;50.326;18.772;2023-11-21T05:57:31;12.50;;;6.50;;
56824;SDS011;42705;50.326;18.772;2023-11-21T06:02:53;9.50;;;6.50;;
56824;SDS011;42705;50.326;18.772;2023-11-21T06:08:15;8.50;;;5.70;;
56824;SDS011;42705;50.326;18.772;2023-11-21T06:13:38;13.30;;;6.90;;
56824;SDS011;42705;50.326;18.772;2023-11-21T06:19:00;10.20;;;6.40;;
56824;SDS011;42705;50.326;18.772;2023-11-21T06:24:22;10.70;;;6.70;;
56824;SDS011;42705;50.326;18.772;2023-11-21T06:29:44;13.40;;;8.20;;
56824;SDS011;42705;50.326;18.772;2023-11-21T06:35:06;14.50;;;8.10;;
56824;SDS011;42705;50.326;18.772;2023-11-21T06:40:30;11.50;;;8.90;;
56824;SDS011;42705;50.326;18.772;2023-11-21T06:45:52;18.10;;;9.20;;
56824;SDS011;42705;50.326;18.772;2023-11-21T06:51:14;12.40;;;8.70;;
56824;SDS011;42705;50.326;18.772;2023-11-21T06:56:36;13.60;;;9.40;;
56824;SDS011;42705;50.326;18.772;2023-11-21T07:02:00;14.20;;;9.20;;
56824;SDS011;42705;50.326;18.772;2023-11-21T07:07:22;10.90;;;7.30;;
56824;SDS011;42705;50.326;18.772;2023-11-21T07:12:44;10.70;;;7.40;;
56824;SDS011;42705;50.326;18.772;2023-11-21T07:18:06;10.30;;;7.20;;
56824;SDS011;42705;50.326;18.772;2023-11-21T07:28:51;15.80;;;7.20;;
56824;SDS011;42705;50.326;18.772;2023-11-21T07:34:13;9.30;;;6.30;;
56824;SDS011;42705;50.326;18.772;2023-11-21T07:39:35;10.60;;;5.60;;
56824;SDS011;42705;50.326;18.772;2023-11-21T07:45:04;8.50;;;5.90;;
56824;SDS011;42705;50.326;18.772;2023-11-21T07:50:28;8.60;;;5.50;;
56824;SDS011;42705;50.326;18.772;2023-11-21T07:55:51;10.50;;;6.80;;
56824;SDS011;42705;50.326;18.772;2023-11-21T08:01:13;10.20;;;6.30;;
56824;SDS011;42705;50.326;18.772;2023-11-21T08:06:35;13.20;;;7.70;;
56824;SDS011;42705;50.326;18.772;2023-11-21T08:11:58;17.30;;;7.30;;
56824;SDS011;42705;50.326;18.772;2023-11-21T08:17:22;15.30;;;8.70;;
56824;SDS011;42705;50.326;18.772;2023-11-21T08:22:45;16.60;;;8.10;;
56824;SDS011;42705;50.326;18.772;2023-11-21T08:28:09;11.10;;;7.00;;
56824;SDS011;42705;50.326;18.772;2023-11-21T08:33:31;11.40;;;6.40;;
56824;SDS011;42705;50.326;18.772;2023-11-21T08:38:53;13.80;;;7.00;;
56824;SDS011;42705;50.326;18.772;2023-11-21T08:44:15;12.60;;;5.50;;
56824;SDS011;42705;50.326;18.772;2023-11-21T08:54:59;9.50;;;4.80;;
56824;SDS011;42705;50.326;18.772;2023-11-21T09:00:29;9.90;;;4.80;;
56824;SDS011;42705;50.326;18.772;2023-11-21T09:05:51;11.70;;;6.40;;
56824;SDS011;42705;50.326;18.772;2023-11-21T09:11:13;9.60;;;7.10;;
56824;SDS011;42705;50.326;18.772;2023-11-21T09:16:35;8.40;;;5.60;;
56824;SDS011;42705;50.326;18.772;2023-11-21T09:21:57;12.50;;;5.60;;
56824;SDS011;42705;50.326;18.772;2023-11-21T09:27:19;8.20;;;4.90;;
56824;SDS011;42705;50.326;18.772;2023-11-21T09:32:41;7.70;;;4.80;;
56824;SDS011;42705;50.326;18.772;2023-11-21T09:38:06;7.90;;;4.00;;
56824;SDS011;42705;50.326;18.772;2023-11-21T09:43:32;11.30;;;5.00;;
56824;SDS011;42705;50.326;18.772;2023-11-21T09:48:55;6.60;;;2.90;;
56824;SDS011;42705;50.326;18.772;2023-11-21T09:54:22;4.30;;;2.70;;
56824;SDS011;42705;50.326;18.772;2023-11-21T09:59:45;4.00;;;2.30;;
56824;SDS011;42705;50.326;18.772;2023-11-21T10:05:11;2.20;;;1.30;;
56824;SDS011;42705;50.326;18.772;2023-11-21T10:10:34;1.80;;;1.00;;
56824;SDS011;42705;50.326;18.772;2023-11-21T10:21:20;1.50;;;0.50;;
56824;SDS011;42705;50.326;18.772;2023-11-21T10:26:42;2.80;;;0.90;;
56824;SDS011;42705;50.326;18.772;2023-11-21T10:32:04;2.70;;;0.90;;
56824;SDS011;42705;50.326;18.772;2023-11-21T10:37:27;1.40;;;1.00;;
56824;SDS011;42705;50.326;18.772;2023-11-21T10:42:49;2.90;;;1.10;;
56824;SDS011;42705;50.326;18.772;2023-11-21T10:48:12;2.70;;;1.20;;
56824;SDS011;42705;50.326;18.772;2023-11-21T10:53:42;3.60;;;1.00;;
56824;SDS011;42705;50.326;18.772;2023-11-21T10:59:03;3.50;;;1.10;;
56824;SDS011;42705;50.326;18.772;2023-11-21T11:04:27;3.20;;;1.30;;
56824;SDS011;42705;50.326;18.772;2023-11-21T11:09:49;2.70;;;0.80;;
56824;SDS011;42705;50.326;18.772;2023-11-21T11:15:12;1.50;;;0.70;;
56824;SDS011;42705;50.326;18.772;2023-11-21T11:20:36;1.80;;;0.70;;
56824;SDS011;42705;50.326;18.772;2023-11-21T11:32:25;1.70;;;0.60;;
56824;SDS011;42705;50.326;18.772;2023-11-21T11:38:07;2.20;;;0.80;;
56824;SDS011;42705;50.326;18.772;2023-11-21T11:43:29;1.70;;;0.80;;
56824;SDS011;42705;50.326;18.772;2023-11-21T11:49:03;1.40;;;1.00;;
56824;SDS011;42705;50.326;18.772;2023-11-21T11:54:35;2.90;;;1.10;;
56824;SDS011;42705;50.326;18.772;2023-11-21T12:00:10;2.60;;;1.10;;
56824;SDS011;42705;50.326;18.772;2023-11-21T12:05:42;3.80;;;1.00;;
56824;SDS011;42705;50.326;18.772;2023-11-21T12:11:07;3.30;;;1.30;;
56824;SDS011;42705;50.326;18.772;2023-11-21T12:16:29;3.10;;;1.20;;
56824;SDS011;42705;50.326;18.772;2023-11-21T12:21:54;2.40;;;0.90;;
56824;SDS011;42705;50.326;18.772;2023-11-21T12:27:17;2.20;;;0.50;;
56824;SDS011;42705;50.326;18.772;2023-11-21T12:32:40;4.40;;;1.60;;
56824;SDS011;42705;50.326;18.772;2023-11-21T12:38:05;2.60;;;1.20;;
56824;SDS011;42705;50.326;18.772;2023-11-21T12:43:28;4.10;;;1.80;;
56824;SDS011;42705;50.326;18.772;2023-11-21T12:48:50;3.40;;;1.60;;
56824;SDS011;42705;50.326;18.772;2023-11-21T12:54:13;2.80;;;1.90;;
56824;SDS011;42705;50.326;18.772;2023-11-21T12:59:35;3.80;;;1.70;;
56824;SDS011;42705;50.326;18.772;2023-11-21T13:05:00;3.40;;;1.50;;
56824;SDS011;42705;50.326;18.772;2023-11-21T13:10:28;4.60;;;2.40;;
56824;SDS011;42705;50.326;18.772;2023-11-21T13:15:52;5.30;;;2.20;;
56824;SDS011;42705;50.326;18.772;2023-11-21T13:21:18;4.20;;;2.40;;
56824;SDS011;42705;50.326;18.772;2023-11-21T13:26:40;4.60;;;2.20;;
56824;SDS011;42705;50.326;18.772;2023-11-21T13:32:02;4.50;;;2.30;;
56824;SDS011;42705;50.326;18.772;2023-11-21T13:37:27;5.70;;;2.60;;
56824;SDS011;42705;50.326;18.772;2023-11-21T13:42:53;4.60;;;2.40;;
56824;SDS011;42705;50.326;18.772;2023-11-21T13:48:16;7.20;;;3.30;;
56824;SDS011;42705;50.326;18.772;2023-11-21T13:53:47;4.50;;;3.70;;
56824;SDS011;42705;50.326;18.772;2023-11-21T13:59:12;9.20;;;5.80;;
56824;SDS011;42705;50.326;18.772;2023-11-21T14:04:46;9.40;;;6.30;;
56824;SDS011;42705;50.326;18.772;2023-11-21T14:10:09;6.60;;;5.10;;
56824;SDS011;42705;50.326;18.772;2023-11-21T14:15:36;7.20;;;4.30;;
56824;SDS011;42705;50.326;18.772;2023-11-21T14:21:07;7.00;;;3.80;;
56824;SDS011;42705;50.326;18.772;2023-11-21T14:26:32;6.60;;;4.50;;
56824;SDS011;42705;50.326;18.772;2023-11-21T14:31:55;6.50;;;3.90;;
56824;SDS011;42705;50.326;18.772;2023-11-21T14:37:19;7.80;;;4.80;;
56824;SDS011;42705;50.326;18.772;2023-11-21T14:42:42;7.50;;;4.40;;
56824;SDS011;42705;50.326;18.772;2023-11-21T14:48:05;5.90;;;3.50;;
56824;SDS011;42705;50.326;18.772;2023-11-21T14:53:27;6.40;;;3.40;;
56824;SDS011;42705;50.326;18.772;2023-11-21T14:59:14;8.90;;;5.00;;
56824;SDS011;42705;50.326;18.772;2023-11-21T15:04:38;5.50;;;4.60;;
56824;SDS011;42705;50.326;18.772;2023-11-21T15:10:00;8.70;;;5.40;;
56824;SDS011;42705;50.326;18.772;2023-11-21T15:15:22;8.70;;;6.20;;
56824;SDS011;42705;50.326;18.772;2023-11-21T15:20:45;13.60;;;8.50;;
56824;SDS011;42705;50.326;18.772;2023-11-21T15:26:07;15.90;;;11.00;;
56824;SDS011;42705;50.326;18.772;2023-11-21T15:31:31;18.10;;;11.30;;
56824;SDS011;42705;50.326;18.772;2023-11-21T15:36:53;17.80;;;11.70;;
56824;SDS011;42705;50.326;18.772;2023-11-21T15:42:17;20.20;;;12.40;;
56824;SDS011;42705;50.326;18.772;2023-11-21T15:47:39;17.00;;;11.60;;
56824;SDS011;42705;50.326;18.772;2023-11-21T15:53:01;16.90;;;12.10;;
56824;SDS011;42705;50.326;18.772;2023-11-21T15:58:25;21.70;;;13.30;;
56824;SDS011;42705;50.326;18.772;2023-11-21T16:03:49;22.00;;;11.20;;
56824;SDS011;42705;50.326;18.772;2023-11-21T16:09:12;21.50;;;12.60;;
56824;SDS011;42705;50.326;18.772;2023-11-21T16:14:45;20.20;;;12.70;;
56824;SDS011;42705;50.326;18.772;2023-11-21T16:20:09;23.00;;;13.00;;
56824;SDS011;42705;50.326;18.772;2023-11-21T16:25:34;22.50;;;12.90;;
56824;SDS011;42705;50.326;18.772;2023-11-21T16:30:56;27.20;;;16.00;;
56824;SDS011;42705;50.326;18.772;2023-11-21T16:36:18;24.60;;;14.20;;
56824;SDS011;42705;50.326;18.772;2023-11-21T16:41:42;27.50;;;14.30;;
56824;SDS011;42705;50.326;18.772;2023-11-21T16:52:27;24.70;;;13.90;;
56824;SDS011;42705;50.326;18.772;2023-11-21T16:57:51;24.50;;;13.50;;
56824;SDS011;42705;50.326;18.772;2023-11-21T17:03:14;24.00;;;14.40;;
56824;SDS011;42705;50.326;18.772;2023-11-21T17:08:36;26.90;;;15.90;;
56824;SDS011;42705;50.326;18.772;2023-11-21T17:13:58;25.50;;;15.10;;
56824;SDS011;42705;50.326;18.772;2023-11-21T17:24:43;31.60;;;17.00;;
56824;SDS011;42705;50.326;18.772;2023-11-21T17:35:28;25.30;;;13.70;;
56824;SDS011;42705;50.326;18.772;2023-11-21T17:40:50;19.70;;;11.70;;
56824;SDS011;42705;50.326;18.772;2023-11-21T17:46:17;22.70;;;12.90;;
56824;SDS011;42705;50.326;18.772;2023-11-21T17:51:40;21.40;;;12.10;;
56824;SDS011;42705;50.326;18.772;2023-11-21T17:57:02;19.70;;;10.90;;
56824;SDS011;42705;50.326;18.772;2023-11-21T18:02:25;25.60;;;13.00;;
56824;SDS011;42705;50.326;18.772;2023-11-21T18:07:47;24.60;;;13.00;;
56824;SDS011;42705;50.326;18.772;2023-11-21T18:13:09;20.90;;;11.90;;
56824;SDS011;42705;50.326;18.772;2023-11-21T18:18:32;23.70;;;11.10;;
56824;SDS011;42705;50.326;18.772;2023-11-21T18:23:54;17.90;;;9.00;;
56824;SDS011;42705;50.326;18.772;2023-11-21T18:29:16;17.50;;;7.90;;
56824;SDS011;42705;50.326;18.772;2023-11-21T18:34:41;17.70;;;9.20;;
56824;SDS011;42705;50.326;18.772;2023-11-21T18:40:06;19.60;;;10.70;;
56824;SDS011;42705;50.326;18.772;2023-11-21T18:45:30;20.30;;;10.30;;
56824;SDS011;42705;50.326;18.772;2023-11-21T18:50:53;20.90;;;10.70;;
56824;SDS011;42705;50.326;18.772;2023-11-21T18:56:22;19.70;;;9.90;;
56824;SDS011;42705;50.326;18.772;2023-11-21T19:01:45;13.20;;;7.80;;
56824;SDS011;42705;50.326;18.772;2023-11-21T19:07:08;23.80;;;10.40;;
56824;SDS011;42705;50.326;18.772;2023-11-21T19:12:33;25.50;;;11.10;;
56824;SDS011;42705;50.326;18.772;2023-11-21T19:18:01;21.30;;;10.40;;
56824;SDS011;42705;50.326;18.772;2023-11-21T19:28:47;17.80;;;8.70;;
56824;SDS011;42705;50.326;18.772;2023-11-21T19:34:11;16.30;;;8.40;;
56824;SDS011;42705;50.326;18.772;2023-11-21T19:39:33;22.70;;;9.80;;
56824;SDS011;42705;50.326;18.772;2023-11-21T19:44:57;17.30;;;9.10;;
56824;SDS011;42705;50.326;18.772;2023-11-21T19:55:42;20.20;;;10.70;;
56824;SDS011;42705;50.326;18.772;2023-11-21T20:01:04;18.20;;;9.10;;
56824;SDS011;42705;50.326;18.772;2023-11-21T20:06:26;20.50;;;11.20;;
56824;SDS011;42705;50.326;18.772;2023-11-21T20:11:48;15.90;;;9.10;;
56824;SDS011;42705;50.326;18.772;2023-11-21T20:17:13;17.40;;;9.70;;
56824;SDS011;42705;50.326;18.772;2023-11-21T20:22:42;18.30;;;8.70;;
56824;SDS011;42705;50.326;18.772;2023-11-21T20:28:13;14.40;;;7.60;;
56824;SDS011;42705;50.326;18.772;2023-11-21T20:33:35;13.50;;;7.20;;
56824;SDS011;42705;50.326;18.772;2023-11-21T20:44:21;21.60;;;9.90;;
56824;SDS011;42705;50.326;18.772;2023-11-21T20:49:43;24.60;;;11.00;;
56824;SDS011;42705;50.326;18.772;2023-11-21T20:55:06;23.40;;;13.60;;
56824;SDS011;42705;50.326;18.772;2023-11-21T21:00:28;21.80;;;13.30;;
56824;SDS011;42705;50.326;18.772;2023-11-21T21:05:50;23.10;;;13.50;;
56824;SDS011;42705;50.326;18.772;2023-11-21T21:11:16;22.20;;;12.90;;
56824;SDS011;42705;50.326;18.772;2023-11-21T21:16:39;20.90;;;11.00;;
56824;SDS011;42705;50.326;18.772;2023-11-21T21:22:03;19.90;;;12.00;;
56824;SDS011;42705;50.326;18.772;2023-11-21T21:27:25;19.30;;;12.80;;
56824;SDS011;42705;50.326;18.772;2023-11-21T21:32:48;22.00;;;12.70;;
56824;SDS011;42705;50.326;18.772;2023-11-21T21:38:10;22.70;;;13.30;;
56824;SDS011;42705;50.326;18.772;2023-11-21T21:43:34;23.00;;;13.20;;
56824;SDS011;42705;50.326;18.772;2023-11-21T21:48:57;25.60;;;13.50;;
56824;SDS011;42705;50.326;18.772;2023-11-21T21:54:20;25.20;;;15.00;;
56824;SDS011;42705;50.326;18.772;2023-11-21T21:59:42;22.70;;;13.30;;
56824;SDS011;42705;50.326;18.772;2023-11-21T22:05:10;24.60;;;15.00;;
56824;SDS011;42705;50.326;18.772;2023-11-21T22:10:33;23.90;;;12.80;;
56824;SDS011;42705;50.326;18.772;2023-11-21T22:15:57;20.70;;;12.50;;
56824;SDS011;42705;50.326;18.772;2023-11-21T22:21:20;26.20;;;14.40;;
56824;SDS011;42705;50.326;18.772;2023-11-21T22:26:43;23.30;;;13.50;;
56824;SDS011;42705;50.326;18.772;2023-11-21T22:32:05;17.90;;;11.20;;
56824;SDS011;42705;50.326;18.772;2023-11-21T22:37:27;19.40;;;11.80;;
56824;SDS011;42705;50.326;18.772;2023-11-21T22:42:49;22.80;;;12.30;;
56824;SDS011;42705;50.326;18.772;2023-11-21T22:48:11;20.00;;;12.00;;
56824;SDS011;42705;50.326;18.772;2023-11-21T22:53:33;22.30;;;13.50;;
56824;SDS011;42705;50.326;18.772;2023-11-21T22:58:55;22.60;;;12.80;;
56824;SDS011;42705;50.326;18.772;2023-11-21T23:04:17;24.60;;;14.20;;
56824;SDS011;42705;50.326;18.772;2023-11-21T23:09:42;24.40;;;13.60;;
56824;SDS011;42705;50.326;18.772;2023-11-21T23:15:04;22.60;;;13.40;;
56824;SDS011;42705;50.326;18.772;2023-11-21T23:20:28;26.60;;;14.90;;
56824;SDS011;42705;50.326;18.772;2023-11-21T23:25:50;33.80;;;17.10;;
56824;SDS011;42705;50.326;18.772;2023-11-21T23:31:12;28.20;;;16.70;;
56824;SDS011;42705;50.326;18.772;2023-11-21T23:36:35;24.00;;;13.90;;
56824;SDS011;42705;50.326;18.772;2023-11-21T23:41:57;22.30;;;13.10;;
56824;SDS011;42705;50.326;18.772;2023-11-21T23:47:19;27.60;;;15.10;;
56824;SDS011;42705;50.326;18.772;2023-11-21T23:52:41;28.40;;;15.40;;
56824;SDS011;42705;50.326;18.772;2023-11-21T23:58:03;28.10;;;14.80;;
